Latest Coastal Weather Observations for Cape Grim

IDV60701

Issued at 5:21 pm EST Saturday 2 July 2016 (issued every 10 minutes, with the page automatically refreshed every 10 minutes)

About coastal observations | Map of coastal stations | Coastal observations for VIC | Marine services | Other Formats
Station Details ID: 091331 Name: CAPE GRIM Lat: -40.68 Lon: 144.69 Height: 86.0 m
Data from the previous 72 hours. | See also: Recent months at Cape Grim
Date/Time
EST
Temp
°C
Wind Pressure Rain since
9am
mm
Weather Cloud Vis
km
Sea
Height
m
Swell
Dir  Spd
kts
Gust
kts
hPa Trend Height
m
Period
s
Dir
02/05:00pm 12.1 W 17 27 1019.3 - 0.0 - Partly cloudy - - - - -
02/04:30pm 12.8 WSW 15 26 1019.1 - 0.0 - Partly cloudy - - - - -
02/04:00pm 12.8 W 19 30 1019.0 - 0.0 - Cloudy - - - - -
02/03:30pm 12.8 W 21 32 1018.8 - 0.0 - Partly cloudy - - - - -
02/03:00pm 11.8 W 19 31 1018.9 - 0.0 - Mostly cloudy - - - - -
02/02:30pm 13.0 W 20 31 1018.8 - 0.0 - Cloudy - - - - -
02/02:02pm 12.8 W 20 32 1018.6 - 0.0 - Partly cloudy - - - - -
02/02:00pm 12.9 W 20 29 1018.7 - 0.0 - Cloudy - - - - -
02/01:30pm 12.8 W 19 31 1018.8 - 0.0 - Cloudy - - - - -
02/01:00pm 12.6 W 20 30 1018.8 - 0.0 - Cloudy - - - - -
02/12:30pm 12.4 W 22 34 1019.1 - 0.0 - Cloudy - - - - -
02/12:00pm 12.5 W 20 32 1019.4 - 0.0 - Cloudy - - - - -
02/11:47am 12.5 W 20 30 1019.5 - 0.0 - Partly cloudy - - - - -
02/11:30am 12.5 W 20 28 1019.6 - 0.0 - Partly cloudy - - - - -
02/11:15am 12.7 W 20 30 1019.6 - 0.0 - Partly cloudy - - - - -
02/11:00am 12.4 W 19 27 1019.6 - 0.0 - Partly cloudy - - - - -
02/10:30am 12.3 W 20 30 1019.5 - 0.0 - Partly cloudy - - - - -
02/10:05am 12.8 W 20 32 1019.2 - 0.0 - Partly cloudy - - - - -
02/10:00am 12.9 W 18 24 1019.3 - 0.0 - Partly cloudy - - - - -
02/09:34am 12.8 W 19 30 1019.1 - 0.0 - Partly cloudy - - - - -
02/09:30am 12.7 W 18 27 1019.1 - 0.0 - - - - - - -
02/09:00am 12.6 W 18 28 1019.0 - 6.0 - Mostly cloudy - - - - -
02/08:30am 12.4 WSW 20 34 1018.8 - 6.0 - Partly cloudy - - - - -
02/08:08am 12.0 W 16 26 1018.7 - 6.0 - Partly cloudy - - - - -
02/08:00am 11.9 WSW 16 24 1018.8 - 6.0 - Partly cloudy - - - - -
02/07:32am 12.4 W 19 30 1018.5 - 5.8 - Partly cloudy - - - - -
02/07:30am 12.4 W 18 26 1018.5 - 5.8 - Partly cloudy - - - - -
02/07:01am 12.4 W 21 31 1018.2 - 5.8 - Partly cloudy - - - - -
02/07:00am 12.3 W 22 31 1018.1 - 5.8 - Partly cloudy - - - - -
02/06:34am 11.7 W 22 32 1017.8 - 5.8 - Partly cloudy - - - - -
02/06:30am 11.5 W 23 32 1017.8 - 5.8 - Partly cloudy - - - - -
02/06:14am 11.7 W 19 32 1017.6 - 5.2 - Partly cloudy - - - - -
02/06:00am 12.0 W 20 27 1017.6 - 5.2 - Cloudy - - - - -
02/05:30am 12.2 W 16 27 1017.3 - 5.2 - Partly cloudy - - - - -
02/05:19am 12.1 W 16 26 1017.3 - 5.2 - Partly cloudy - - - - -
02/05:00am 12.2 W 17 24 1017.3 - 5.2 - Partly cloudy - - - - -
02/04:31am 12.2 W 17 27 1017.1 - 5.2 - Partly cloudy - - - - -
02/04:30am 12.0 W 18 27 1017.1 - 5.2 - Partly cloudy - - - - -
02/04:10am 11.4 W 16 27 1017.2 - 5.0 - Partly cloudy - - - - -
02/04:00am 10.7 W 18 31 1017.2 - 5.0 - Partly cloudy - - - - -
02/03:49am 11.6 W 18 30 1017.2 - 4.8 - Partly cloudy - - - - -
02/03:30am 11.9 W 17 30 1017.1 - 3.8 - Partly cloudy - - - - -
02/03:00am 11.5 W 18 31 1017.2 - 3.8 Rain Cloudy - - - - -
02/02:38am 12.6 W 21 32 1017.1 - 3.2 - Partly cloudy - - - - -
02/02:30am 12.4 W 21 29 1017.1 - 3.2 - Partly cloudy - - - - -
02/02:16am 12.4 W 19 29 1017.3 - 3.2 - Partly cloudy - - - - -
02/02:00am 12.1 W 22 28 1017.2 - 3.2 - Partly cloudy - - - - -
02/01:50am 12.3 W 18 29 1017.2 - 3.2 - Partly cloudy - - - - -
02/01:30am 12.3 W 17 25 1017.1 - 3.2 - Partly cloudy - - - - -
02/01:12am 12.2 W 17 27 1017.2 - 3.2 - Partly cloudy - - - - -
02/01:00am 12.3 W 17 25 1017.1 - 3.2 - Partly cloudy - - - - -
02/12:48am 12.2 W 17 27 1017.1 - 3.2 - Partly cloudy - - - - -
02/12:30am 12.2 W 17 25 1017.2 - 3.2 - Partly cloudy - - - - -
02/12:00am 11.4 W 17 22 1017.6 - 3.2 Recent precip. Mostly cloudy - - - - -
 
Date/Time
EST
Temp
°C
Wind Pressure Rain since
9am
mm
Weather Cloud Vis
km
Sea
Height
m
Swell
Dir  Spd
kts
Gust
kts
hPa Trend Height
m
Period
s
Dir
01/11:38pm 11.5 W 15 25 1017.5 - 3.0 - Partly cloudy - - - - -
01/11:30pm 11.9 W 16 21 1017.6 - 3.0 - Partly cloudy - - - - -
01/11:00pm 11.5 W 19 27 1017.3 - 3.0 - Partly cloudy - - - - -
01/10:31pm 12.2 W 15 25 1017.1 - 3.0 - Partly cloudy - - - - -
01/10:30pm 12.3 W 16 25 1017.1 - 3.0 - Partly cloudy - - - - -
01/10:05pm 12.3 W 15 27 1017.0 - 2.8 - Partly cloudy - - - - -
01/10:00pm 12.1 W 16 24 1017.0 - 2.8 - Partly cloudy - - - - -
01/09:30pm 12.0 W 16 23 1017.1 - 2.8 - Partly cloudy - - - - -
01/09:00pm 11.3 W 18 29 1017.1 - 2.8 Recent precip. Cloudy - - - - -
01/08:46pm 12.0 W 15 25 1017.2 - 2.8 - Partly cloudy - - - - -
01/08:30pm 12.3 W 14 20 1017.1 - 2.4 - Partly cloudy - - - - -
01/08:00pm 12.4 W 17 25 1016.9 - 2.4 - Partly cloudy - - - - -
01/07:30pm 11.9 W 19 27 1016.8 - 2.4 - Partly cloudy - - - - -
01/07:14pm 11.6 W 17 28 1016.8 - 2.4 - Partly cloudy - - - - -
01/07:00pm 11.6 W 16 23 1016.7 - 2.4 - Partly cloudy - - - - -
01/06:30pm 11.0 W 19 29 1016.7 - 1.8 - Partly cloudy - - - - -
01/06:06pm 11.1 W 17 27 1016.4 - 1.2 - Partly cloudy - - - - -
01/06:00pm 11.0 W 18 27 1016.4 - 1.0 Rain Cloudy - - - - -
01/05:30pm 11.8 W 17 24 1016.2 - 0.2 - Partly cloudy - - - - -
01/05:02pm 12.4 W 16 26 1016.0 - 0.2 - Partly cloudy - - - - -
01/05:00pm 12.3 W 16 23 1015.9 - 0.2 - Cloudy - - - - -
01/04:30pm 11.9 W 16 24 1015.9 - 0.2 - Partly cloudy - - - - -
01/04:00pm 12.0 W 17 23 1015.8 - 0.2 - Partly cloudy - - - - -
01/03:30pm 11.9 W 17 26 1015.5 - 0.0 - Partly cloudy - - - - -
01/03:07pm 12.0 W 16 26 1015.4 - 0.0 - Partly cloudy - - - - -
01/03:00pm 11.7 W 14 20 1015.5 - 0.0 - Mostly cloudy - - - - -
01/02:30pm 10.8 WSW 15 24 1015.6 - 0.0 - Partly cloudy - - - - -
01/02:19pm 11.7 W 15 27 1015.4 - 0.0 - Partly cloudy - - - - -
01/02:00pm 12.5 W 14 21 1015.3 - 0.0 - Partly cloudy - - - - -
01/01:30pm 11.3 W 17 24 1015.4 - 0.0 - Partly cloudy - - - - -
01/01:00pm 11.7 W 15 26 1015.4 - 0.0 - Partly cloudy - - - - -
01/12:59pm 11.6 W 15 26 1015.5 - 0.0 - Partly cloudy - - - - -
01/12:30pm 10.4 WSW 11 21 1015.8 - 0.0 - Partly cloudy - - - - -
01/12:12pm 10.9 WSW 15 29 1015.9 - 0.0 - Partly cloudy - - - - -
01/12:00pm 11.3 W 16 25 1015.9 - 0.0 - Cloudy - - - - -
01/11:41am 10.5 WSW 14 25 1016.0 - 0.0 - Partly cloudy - - - - -
01/11:30am 11.0 W 15 24 1016.0 - 0.0 - Partly cloudy - - - - -
01/11:00am 11.0 W 15 21 1016.1 - 0.0 - Partly cloudy - - - - -
01/10:35am 11.4 WSW 15 26 1015.9 - 0.0 - Partly cloudy - - - - -
01/10:30am 11.4 WSW 14 23 1015.9 - 0.0 - Partly cloudy - - - - -
01/10:00am 11.2 WSW 15 25 1015.8 - 0.0 - Cloudy - - - - -
01/09:32am 11.1 WSW 15 27 1015.5 - 0.0 - Partly cloudy - - - - -
01/09:30am 11.0 WSW 14 27 1015.5 - 0.0 - Partly cloudy - - - - -
01/09:00am 11.0 WSW 15 26 1015.2 - 3.2 - Mostly cloudy - - - - -
01/08:30am 10.5 SW 19 32 1014.7 - 3.2 - Partly cloudy - - - - -
01/08:23am 10.8 SW 20 30 1014.7 - 3.2 - Partly cloudy - - - - -
01/08:00am 10.4 SW 20 28 1014.4 - 3.2 - Partly cloudy - - - - -
01/07:31am 10.8 SW 21 35 1014.1 - 3.2 - Partly cloudy - - - - -
01/07:30am 10.9 SW 21 30 1014.0 - 3.2 - Partly cloudy - - - - -
01/07:18am 10.7 SW 23 33 1013.8 - 3.2 - Partly cloudy - - - - -
01/07:00am 10.4 SW 26 33 1013.5 - 3.2 - Partly cloudy - - - - -
01/06:30am 9.6 SW 23 33 1013.1 - 3.2 - Partly cloudy - - - - -
01/06:28am 9.7 SW 22 29 1013.0 - 3.0 - Partly cloudy - - - - -
01/06:15am 9.9 SW 24 31 1012.8 - 2.8 - Partly cloudy - - - - -
01/06:00am 10.1 SW 25 31 1012.5 - 2.6 - Mostly cloudy - - - - -
01/05:30am 10.8 SW 21 31 1011.9 - 2.6 - Partly cloudy - - - - -
01/05:06am 11.3 SW 19 29 1011.7 - 2.6 - Partly cloudy - - - - -
01/05:00am 11.0 SW 22 29 1011.5 - 2.6 - Partly cloudy - - - - -
01/04:30am 11.4 SW 20 27 1011.0 - 2.6 - Partly cloudy - - - - -
01/04:00am 11.6 SW 22 28 1010.8 - 2.6 - Partly cloudy - - - - -
01/03:30am 11.4 SW 22 26 1010.5 - 2.6 - Partly cloudy - - - - -
01/03:00am 11.4 SW 22 28 1010.2 - 2.6 Recent precip. Partly cloudy - - - - -
01/02:30am 10.9 SSW 17 28 1009.8 - 2.4 - Partly cloudy - - - - -
01/02:00am 10.8 SW 12 19 1009.1 - 1.6 - Partly cloudy - - - - -
01/01:30am 10.0 SSW 11 16 1008.9 - 1.6 - Partly cloudy - - - - -
01/01:00am 10.3 SSW 17 23 1008.0 - 1.6 - Partly cloudy - - - - -
01/12:30am 10.7 SW 16 20 1007.5 - 1.6 - Partly cloudy - - - - -
01/12:00am 10.6 SSW 12 19 1007.1 - 1.6 - Partly cloudy - - - - -
 
Date/Time
EST
Temp
°C
Wind Pressure Rain since
9am
mm
Weather Cloud Vis
km
Sea
Height
m
Swell
Dir  Spd
kts
Gust
kts
hPa Trend Height
m
Period
s
Dir
30/11:30pm 10.8 SW 18 22 1006.8 - 1.6 - Partly cloudy - - - - -
30/11:00pm 10.6 SSW 11 16 1006.3 - 1.6 - Partly cloudy - - - - -
30/10:30pm 10.6 SW 12 15 1005.9 - 1.6 - Cloudy - - - - -
30/10:00pm 10.4 SW 9 12 1005.5 - 1.6 - Partly cloudy - - - - -
30/09:30pm 9.8 WSW 6 10 1004.8 - 1.6 - Partly cloudy - - - - -
30/09:00pm 9.6 WSW 9 13 1004.4 - 1.4 - Cloudy - - - - -
30/08:30pm 9.9 SW 11 15 1004.1 - 1.4 - Partly cloudy - - - - -
30/08:00pm 10.9 W 7 13 1003.6 - 1.4 - Partly cloudy - - - - -
30/07:30pm 10.5 W 9 14 1003.2 - 1.4 - Partly cloudy - - - - -
30/07:00pm 9.7 W 6 8 1002.9 - 1.4 - Partly cloudy - - - - -
30/06:30pm 9.5 W 11 17 1002.7 - 1.2 - Partly cloudy - - - - -
30/06:00pm 10.4 W 9 16 1002.2 - 1.2 - Cloudy - - - - -
30/05:30pm 10.7 WSW 9 14 1001.5 - 1.2 - Partly cloudy - - - - -
30/05:00pm 10.4 W 10 16 1000.9 - 1.2 - Partly cloudy - - - - -
30/04:30pm 10.3 W 17 24 1000.7 - 1.0 - Partly cloudy - - - - -
30/04:12pm 10.8 NW 23 29 1000.5 - 0.8 - Partly cloudy - - - - -
30/04:00pm 11.3 NNW 27 31 1000.5 - 0.8 - Partly cloudy - - - - -
30/03:30pm 11.4 NNW 25 31 1000.5 - 0.8 - Partly cloudy - - - - -
30/03:00pm 11.4 NNW 25 31 1000.6 - 0.8 Recent precip. Cloudy - - - - -
30/02:30pm 11.1 NNW 25 31 1000.8 - 0.8 - Partly cloudy - - - - -
30/02:00pm 11.5 NNW 25 32 1001.0 - 0.6 - Partly cloudy - - - - -
30/01:30pm 11.7 NNW 28 36 1001.2 - 0.6 - Partly cloudy - - - - -
30/01:00pm 11.5 NNW 30 36 1001.3 - 0.6 - Partly cloudy - - - - -
30/12:41pm 11.6 NNW 29 39 1001.6 - 0.6 - Partly cloudy - - - - -
30/12:30pm 11.6 NNW 28 35 1001.7 - 0.6 - Partly cloudy - - - - -
30/12:00pm 11.4 NNW 29 39 1002.2 - 0.6 - Cloudy - - - - -
30/11:30am 10.9 NNW 31 41 1002.8 - 0.6 - Partly cloudy - - - - -
30/11:00am 10.7 NNW 28 38 1003.3 - 0.6 - Partly cloudy - - - - -
30/10:44am 10.4 NNW 28 38 1003.5 - 0.6 - Partly cloudy - - - - -
30/10:35am 10.6 NNW 29 38 1003.6 - 0.6 - Partly cloudy - - - - -
30/10:31am 10.7 NNW 30 40 1003.7 - 0.6 - Partly cloudy - - - - -
30/10:30am 10.7 NNW 31 40 1003.7 - 0.6 - Partly cloudy - - - - -
30/10:20am 10.7 NNW 30 39 1003.6 - 0.6 - Partly cloudy - - - - -
30/10:00am 10.5 NNW 29 39 1003.7 - 0.6 - Partly cloudy - - - - -
30/09:38am 10.7 N 30 40 1003.9 - 0.6 - Partly cloudy - - - - -
30/09:37am 10.6 N 31 40 1003.8 - 0.6 - Partly cloudy - - - - -
30/09:31am 10.4 N 30 40 1004.0 - 0.6 - Partly cloudy - - - - -
30/09:30am 10.6 N 30 37 1004.0 - 0.6 - Partly cloudy - - - - -
30/09:27am 10.4 N 30 40 1004.0 - 0.4 - Partly cloudy - - - - -
30/09:17am 10.6 N 29 40 1004.2 - 0.2 - Partly cloudy - - - - -
30/09:00am 10.5 N 29 37 1004.3 - 4.6 Rain Cloudy - - - - -
30/08:37am 10.6 N 28 38 1004.6 - 4.2 - Partly cloudy - - - - -
30/08:30am 10.6 N 30 38 1004.6 - 4.2 - Partly cloudy - - - - -
30/08:00am 10.8 N 29 38 1005.1 - 3.6 - Partly cloudy - - - - -
30/07:30am 11.0 NNW 29 41 1005.6 - 3.4 - Partly cloudy - - - - -
30/07:25am 11.1 NNW 29 41 1005.5 - 3.4 - Partly cloudy - - - - -
30/07:00am 10.9 NNW 31 40 1005.8 - 3.2 - Partly cloudy - - - - -
30/06:30am 11.9 N 29 40 1006.0 - 3.0 - Partly cloudy - - - - -
30/06:07am 11.9 N 30 40 1006.4 - 3.0 - Partly cloudy - - - - -
30/06:00am 11.7 N 31 40 1006.3 - 3.0 - Cloudy - - - - -
30/05:34am 11.6 N 29 39 1006.7 - 3.0 - Partly cloudy - - - - -
30/05:30am 11.8 N 30 39 1006.7 - 3.0 - Partly cloudy - - - - -
30/05:00am 12.0 N 30 40 1007.1 - 3.0 - Partly cloudy - - - - -
30/04:33am 12.0 N 31 41 1007.6 - 3.0 - Partly cloudy - - - - -
30/04:30am 12.0 N 33 41 1007.6 - 3.0 - Partly cloudy - - - - -
30/04:03am 12.0 N 32 43 1008.2 - 3.0 - Partly cloudy - - - - -
30/04:00am 12.0 N 32 40 1008.3 - 3.0 - Partly cloudy - - - - -
30/03:30am 12.0 N 32 42 1009.1 - 3.0 - Partly cloudy - - - - -
30/03:10am 11.8 N 31 41 1009.4 - 2.8 - Partly cloudy - - - - -
30/03:00am 11.8 N 31 39 1009.9 - 2.8 - Cloudy - - - - -
30/02:30am 11.4 N 33 44 1010.4 - 2.8 - Partly cloudy - - - - -
30/02:01am 12.1 N 28 42 1010.8 - 2.8 - Partly cloudy - - - - -
30/02:00am 12.1 N 27 36 1010.9 - 2.8 - Partly cloudy - - - - -
30/01:56am 12.0 N 27 37 1011.0 - 2.8 - Partly cloudy - - - - -
30/01:30am 11.9 N 29 37 1011.3 - 2.8 - Partly cloudy - - - - -
30/01:09am 11.9 N 29 39 1011.7 - 2.8 - Partly cloudy - - - - -
30/01:00am 11.9 N 29 37 1012.1 - 2.8 - Partly cloudy - - - - -
30/12:39am 11.8 N 28 38 1012.5 - 2.8 - Partly cloudy - - - - -
30/12:30am 11.8 N 28 36 1012.4 - 2.8 - Partly cloudy - - - - -
30/12:00am 12.1 N 27 36 1013.3 - 2.8 - Cloudy - - - - -
 
Date/Time
EST
Temp
°C
Wind Pressure Rain since
9am
mm
Weather Cloud Vis
km
Sea
Height
m
Swell
Dir  Spd
kts
Gust
kts
hPa Trend Height
m
Period
s
Dir
29/11:32pm 12.3 NNW 27 37 1014.1 - 2.8 - Cloudy - - - - -
29/11:30pm 12.3 NNW 28 37 1014.0 - 2.8 - Cloudy - - - - -
29/11:28pm 12.3 NNW 27 37 1014.0 - 2.8 - Partly cloudy - - - - -
29/11:00pm 12.2 N 26 32 1014.5 - 2.8 - Partly cloudy - - - - -
29/10:30pm 12.2 NNW 25 32 1015.0 - 2.8 - Partly cloudy - - - - -
29/10:00pm 11.9 NNW 23 32 1015.5 - 2.8 - Partly cloudy - - - - -
29/09:30pm 12.4 NNW 26 31 1015.9 - 2.8 - Cloudy - - - - -
29/09:00pm 12.7 NNW 23 30 1016.2 - 2.8 - Cloudy - - - - -
29/08:30pm 12.4 N 22 28 1016.3 - 2.8 - Partly cloudy - - - - -
29/08:00pm 12.4 NNW 22 29 1016.7 - 2.8 - Partly cloudy - - - - -
29/07:30pm 12.6 NNW 22 29 1016.8 - 2.8 - Partly cloudy - - - - -
29/07:00pm 12.5 N 19 24 1017.1 - 2.8 - Partly cloudy - - - - -
29/06:30pm 12.3 N 19 25 1017.4 - 2.8 - Partly cloudy - - - - -
29/06:00pm 12.6 NNW 21 27 1017.6 - 2.8 - Mostly clear - - - - -
29/05:30pm 12.4 NNW 23 27 1018.0 - 2.8 - Partly cloudy - - - - -

Other Formats:

Comma delimited format used in spreadsheet applications
http://www.bom.gov.au/fwo/IDV60701/IDV60701.95954.axf

JavaScript Object Notation format (JSON) in row-major order
http://www.bom.gov.au/fwo/IDV60701/IDV60701.95954.json